Time;durP1;ratioP1;P1;durP2;ratioP2;P2;SDS_P1;SDS_P2;PMS_P1;PMS_P2;Temp;Humidity;BMP_temperature;BMP_pressure;BME280_temperature;BME280_humidity;BME280_pressure;Samples;Min_cycle;Max_cycle;Signal;HPM_P1;HPM_P2
2021/12/12 00:01:41;;;;;;;6.72;2.70;;;;;;;19.28;51.91;101896.69;4988704;28;20046;-75
2021/12/12 00:04:12;;;;;;;7.40;2.40;;;;;;;19.29;52.09;101898.38;4988640;28;20050;-75
2021/12/12 00:06:40;;;;;;;7.03;2.60;;;;;;;19.29;51.56;101890.38;4990827;28;20040;-75
2021/12/12 00:09:13;;;;;;;7.05;2.67;;;;;;;19.24;51.41;101887.22;4972919;28;20054;-73
2021/12/12 00:11:38;;;;;;;7.43;2.80;;;;;;;19.24;51.96;101876.56;4991027;28;20043;-76
2021/12/12 00:14:11;;;;;;;7.30;2.47;;;;;;;19.23;51.09;101869.56;4993810;28;20045;-75
2021/12/12 00:16:36;;;;;;;7.82;2.72;;;;;;;19.21;51.22;101872.38;4991057;28;20456;-75
2021/12/12 00:19:02;;;;;;;9.77;2.75;;;;;;;19.19;51.18;101866.31;5005659;28;20520;-74
2021/12/12 00:21:29;;;;;;;6.65;2.60;;;;;;;19.18;51.98;101856.63;4993865;28;20431;-75
2021/12/12 00:23:54;;;;;;;6.78;2.50;;;;;;;19.19;51.79;101863.63;5011504;28;20033;-75
2021/12/12 00:26:20;;;;;;;6.60;2.70;;;;;;;19.15;51.46;101865.69;5011047;28;20052;-75
2021/12/12 00:28:46;;;;;;;6.13;2.33;;;;;;;19.11;51.14;101861.56;5011500;28;20108;-75
2021/12/12 00:31:13;;;;;;;8.75;3.17;;;;;;;19.12;51.83;101857.94;5010609;28;20157;-75
2021/12/12 00:33:41;;;;;;;6.55;2.72;;;;;;;19.12;51.04;101857.09;5010034;28;20512;-75
2021/12/12 00:36:07;;;;;;;8.23;2.85;;;;;;;19.11;51.05;101860.72;5009715;28;20030;-75
2021/12/12 00:38:34;;;;;;;7.82;2.50;;;;;;;19.10;51.13;101857.22;5011416;28;20133;-76
2021/12/12 00:41:02;;;;;;;6.82;2.70;;;;;;;19.08;51.33;101861.78;5011203;28;20041;-75
2021/12/12 00:43:31;;;;;;;7.75;2.83;;;;;;;19.09;50.99;101860.84;5009445;28;20119;-75
2021/12/12 00:45:59;;;;;;;7.97;2.70;;;;;;;19.07;51.21;101860.09;5009905;28;20125;-75
2021/12/12 00:48:25;;;;;;;8.00;2.55;;;;;;;19.07;50.83;101861.91;5010955;28;20046;-75
2021/12/12 00:50:51;;;;;;;7.90;2.88;;;;;;;19.05;50.85;101855.84;5011325;28;20116;-75
2021/12/12 00:53:20;;;;;;;6.75;2.60;;;;;;;19.06;50.78;101860.22;5010194;28;20201;-75
2021/12/12 00:55:45;;;;;;;10.63;3.15;;;;;;;19.04;50.61;101849.69;5011137;28;20037;-75
2021/12/12 00:58:12;;;;;;;7.47;2.83;;;;;;;19.04;51.04;101854.19;5009221;28;20053;-75
2021/12/12 01:00:43;;;;;;;7.60;2.45;;;;;;;19.03;50.88;101849.84;5010938;28;20498;-75
2021/12/12 01:03:09;;;;;;;7.63;2.60;;;;;;;18.99;51.16;101838.59;5010062;28;20084;-75
2021/12/12 01:05:36;;;;;;;8.95;3.10;;;;;;;18.98;51.11;101844.84;5010595;28;20494;-75
2021/12/12 01:08:04;;;;;;;8.45;2.65;;;;;;;18.98;50.65;101831.56;4992600;28;20058;-75
2021/12/12 01:10:38;;;;;;;6.40;2.50;;;;;;;18.94;50.73;101827.44;5009024;28;20064;-76
2021/12/12 01:13:04;;;;;;;8.88;2.85;;;;;;;18.96;51.42;101825.53;5008567;28;20633;-76
2021/12/12 01:15:32;;;;;;;6.70;2.47;;;;;;;18.94;51.18;101827.44;5008846;28;20038;-75
2021/12/12 01:17:59;;;;;;;6.07;2.45;;;;;;;18.92;51.42;101832.03;5010382;28;20443;-75
2021/12/12 01:20:30;;;;;;;6.38;2.58;;;;;;;18.91;50.67;101827.69;5025221;28;20046;-75
2021/12/12 01:22:59;;;;;;;7.40;2.83;;;;;;;18.91;51.40;101835.66;5009685;28;20049;-75
2021/12/12 01:25:28;;;;;;;8.07;2.65;;;;;;;18.87;51.40;101834.19;5008604;28;20037;-75
2021/12/12 01:27:54;;;;;;;7.60;2.95;;;;;;;18.87;51.01;101836.84;5010399;28;20092;-75
2021/12/12 01:30:20;;;;;;;6.43;2.45;;;;;;;18.85;51.33;101833.47;5008480;28;20034;-75
2021/12/12 01:32:46;;;;;;;7.70;2.60;;;;;;;18.83;50.76;101835.38;5009029;28;20045;-75
2021/12/12 01:35:16;;;;;;;7.65;2.60;;;;;;;18.84;50.66;101843.25;5009838;28;20041;-75
2021/12/12 01:38:50;;;;;;;7.88;2.50;;;;;;;18.84;50.86;101831.78;5010295;28;20038;-75
2021/12/12 01:40:31;;;;;;;6.55;2.47;;;;;;;18.82;50.98;101833.69;5009649;28;20034;-75
2021/12/12 01:43:03;;;;;;;6.55;2.40;;;;;;;18.81;51.09;101827.53;5010141;28;20041;-75
2021/12/12 01:45:32;;;;;;;5.95;2.25;;;;;;;18.79;51.42;101823.28;5008423;28;20038;-75
2021/12/12 01:48:21;;;;;;;6.78;2.40;;;;;;;18.81;50.79;101826.69;5010001;28;20092;-75
2021/12/12 01:50:50;;;;;;;6.82;2.58;;;;;;;18.79;51.14;101817.97;5009267;28;20492;-75
2021/12/12 01:53:17;;;;;;;6.10;2.30;;;;;;;18.79;51.25;101821.47;5009388;28;20052;-75
2021/12/12 01:55:44;;;;;;;7.28;2.50;;;;;;;18.78;51.27;101816.28;5009788;28;20042;-75
2021/12/12 01:58:13;;;;;;;5.85;2.25;;;;;;;18.76;50.96;101819.06;5009519;28;20573;-74
2021/12/12 02:00:44;;;;;;;6.00;2.17;;;;;;;18.73;50.92;101830.75;5008588;28;20036;-74
2021/12/12 02:03:11;;;;;;;7.88;2.63;;;;;;;18.71;50.81;101829.16;5009022;28;20152;-75
2021/12/12 02:05:36;;;;;;;5.40;2.28;;;;;;;18.71;51.11;101827.34;5008275;28;20042;-75
2021/12/12 02:08:05;;;;;;;5.63;2.00;;;;;;;18.70;50.61;101830.94;4991938;28;20636;-74
2021/12/12 02:10:34;;;;;;;5.90;2.20;;;;;;;18.70;51.00;101830.94;5010029;28;20042;-75
2021/12/12 02:13:02;;;;;;;5.47;2.20;;;;;;;18.68;51.26;101822.28;5008314;28;20049;-76
2021/12/12 02:15:27;;;;;;;5.28;2.13;;;;;;;18.70;50.80;101830.13;5009350;28;20045;-75
2021/12/12 02:17:53;;;;;;;5.25;2.10;;;;;;;18.68;50.57;101838.22;4988631;28;20042;-75
2021/12/12 02:36:48;;;;;;;4.35;1.98;;;;;;;18.59;51.24;101824.78;5009009;28;20092;-73
2021/12/12 02:39:17;;;;;;;5.28;1.80;;;;;;;18.61;51.24;101815.69;4987410;28;20044;-72
2021/12/12 02:41:48;;;;;;;6.10;2.40;;;;;;;18.59;50.71;101815.00;4988328;28;20034;-72
2021/12/12 02:44:14;;;;;;;4.97;1.88;;;;;;;18.60;50.86;101800.72;4988390;28;20034;-72
2021/12/12 02:46:41;;;;;;;5.28;1.90;;;;;;;18.61;50.78;101812.19;4989626;28;20573;-73
2021/12/12 02:49:22;;;;;;;5.20;1.73;;;;;;;18.58;50.78;101810.63;4991274;28;20181;-72
2021/12/12 02:51:47;;;;;;;4.30;1.80;;;;;;;18.57;50.85;101821.38;5009149;28;20030;-72
2021/12/12 02:54:13;;;;;;;5.07;2.10;;;;;;;18.56;50.71;101822.34;5007122;28;20041;-72
2021/12/12 02:56:41;;;;;;;4.80;1.75;;;;;;;18.54;51.16;101816.28;5007743;28;20038;-72
2021/12/12 02:59:09;;;;;;;5.68;1.90;;;;;;;18.55;51.23;101810.88;5006721;28;20723;-72
2021/12/12 03:01:39;;;;;;;5.13;1.90;;;;;;;18.50;50.72;101811.22;5008628;28;20112;-72
2021/12/12 03:04:05;;;;;;;4.53;1.90;;;;;;;18.54;51.08;101803.84;5008218;28;20060;-72
2021/12/12 03:06:31;;;;;;;4.53;1.77;;;;;;;18.56;51.20;101807.25;5007266;28;20060;-72
2021/12/12 03:09:05;;;;;;;5.55;1.88;;;;;;;18.56;51.14;101801.09;5008472;28;20453;-73
2021/12/12 03:11:30;;;;;;;5.53;2.10;;;;;;;18.50;50.99;101810.38;4987428;28;20056;-73
2021/12/12 03:13:56;;;;;;;4.40;1.83;;;;;;;18.52;51.02;101800.47;4988867;28;20074;-73
2021/12/12 03:16:21;;;;;;;4.00;1.92;;;;;;;18.52;50.47;101805.78;4987411;28;20038;-73
2021/12/12 03:18:47;;;;;;;4.22;1.83;;;;;;;18.54;50.85;101806.50;5002270;28;20502;-73
2021/12/12 03:21:16;;;;;;;4.88;1.90;;;;;;;18.50;51.04;101808.53;5008060;28;20046;-73
2021/12/12 03:23:46;;;;;;;4.45;1.85;;;;;;;18.46;50.57;101804.44;5007697;28;20056;-73
2021/12/12 03:26:12;;;;;;;4.65;1.48;;;;;;;18.47;50.67;101802.63;5006840;28;20065;-73
2021/12/12 03:28:40;;;;;;;4.53;1.80;;;;;;;18.47;50.60;101808.78;5007380;28;20095;-73
2021/12/12 03:31:08;;;;;;;4.85;1.95;;;;;;;18.48;50.58;101812.28;5006492;28;20077;-73
2021/12/12 03:33:33;;;;;;;4.85;1.80;;;;;;;18.47;51.15;101810.59;5008350;28;20583;-73
2021/12/12 03:36:05;;;;;;;4.63;1.80;;;;;;;18.45;50.73;101810.69;4998749;28;20050;-73
2021/12/12 03:38:31;;;;;;;4.65;1.90;;;;;;;18.44;51.31;101810.81;4990323;28;20116;-73
2021/12/12 03:40:57;;;;;;;4.28;1.83;;;;;;;18.44;50.65;101808.16;5004141;28;20046;-73
2021/12/12 03:43:23;;;;;;;4.18;1.50;;;;;;;18.45;50.68;101812.50;5010538;28;20495;-72
2021/12/12 03:45:48;;;;;;;3.67;1.75;;;;;;;18.41;51.14;101805.72;5012013;28;20096;-73
2021/12/12 03:48:23;;;;;;;4.28;1.80;;;;;;;18.41;50.89;101798.59;5010648;28;20065;-72
2021/12/12 03:50:49;;;;;;;4.25;1.80;;;;;;;18.40;51.21;101799.56;5011949;28;20033;-72
2021/12/12 03:53:15;;;;;;;3.95;1.80;;;;;;;18.41;51.05;101789.78;5010545;28;20457;-72
2021/12/12 03:55:46;;;;;;;5.70;1.88;;;;;;;18.40;51.13;101793.41;5011991;28;20037;-72
2021/12/12 03:58:12;;;;;;;5.50;1.90;;;;;;;18.40;50.95;101801.41;5010386;28;20104;-72
2021/12/12 04:00:49;;;;;;;3.97;1.75;;;;;;;18.41;51.21;101803.06;5010738;28;20042;-72
2021/12/12 04:03:15;;;;;;;4.47;1.80;;;;;;;18.33;51.15;101792.16;5011866;28;20041;-72
2021/12/12 04:05:46;;;;;;;4.70;1.88;;;;;;;18.34;51.13;101797.38;5011876;28;20100;-73
2021/12/12 04:08:11;;;;;;;;;;;;;;;18.34;50.87;101799.19;5010330;28;20520;-72
2021/12/12 04:10:36;;;;;;;5.00;1.90;;;;;;;18.29;51.10;101804.00;5011643;28;19932;-73
2021/12/12 04:13:02;;;;;;;4.70;2.03;;;;;;;18.30;50.82;101800.34;5010244;28;20046;-72
2021/12/12 04:15:27;;;;;;;4.50;2.08;;;;;;;18.28;51.07;101803.16;5011713;28;20041;-73
2021/12/12 04:17:53;;;;;;;3.30;1.50;;;;;;;18.36;50.93;101795.44;5011608;28;20041;-72
2021/12/12 04:20:25;;;;;;;3.38;1.50;;;;;;;18.32;51.27;101793.97;5011248;28;20069;-72
2021/12/12 04:22:50;;;;;;;5.85;2.00;;;;;;;18.29;51.10;101791.53;5010721;28;20145;-73
2021/12/12 04:25:15;;;;;;;3.90;1.55;;;;;;;18.33;50.81;101795.66;5011122;28;20501;-73
2021/12/12 04:27:41;;;;;;;4.15;1.70;;;;;;;18.30;51.16;101782.63;5010521;28;20406;-72
2021/12/12 04:30:08;;;;;;;3.80;1.90;;;;;;;18.34;50.83;101796.53;5011239;28;20045;-72
2021/12/12 04:32:34;;;;;;;3.40;1.50;;;;;;;18.31;51.01;101796.75;5009950;28;20472;-73
2021/12/12 04:35:19;;;;;;;3.67;1.60;;;;;;;18.33;51.36;101800.13;5011323;28;20030;-73
2021/12/12 04:37:45;;;;;;;3.55;1.50;;;;;;;18.29;51.42;101804.00;5009913;28;20042;-72
2021/12/12 04:40:13;;;;;;;4.03;1.70;;;;;;;18.25;51.29;101804.22;5009668;28;20049;-72
2021/12/12 04:42:39;;;;;;;4.43;1.58;;;;;;;18.29;51.28;101807.50;5011067;28;20057;-73
2021/12/12 04:45:08;;;;;;;3.88;1.60;;;;;;;18.27;51.07;101804.97;5010659;28;20036;-73
2021/12/12 04:50:36;;;;;;;4.63;1.50;;;;;;;18.25;51.25;101808.69;5009686;28;20556;-73
2021/12/12 04:53:09;;;;;;;3.38;1.60;;;;;;;18.25;51.30;101800.72;5010156;28;20050;-73
2021/12/12 04:55:52;;;;;;;3.20;1.40;;;;;;;18.27;51.40;101807.63;5009615;28;20046;-73
2021/12/12 04:58:41;;;;;;;4.05;1.67;;;;;;;18.28;51.10;101803.16;5010423;28;20133;-73
2021/12/12 05:01:18;;;;;;;3.97;1.65;;;;;;;18.26;51.33;101808.56;5009540;28;20046;-73
2021/12/12 05:04:20;;;;;;;5.00;1.80;;;;;;;18.27;51.05;101812.09;4993720;28;20544;-73
2021/12/12 05:06:50;;;;;;;4.82;1.98;;;;;;;18.26;50.96;101808.56;4988803;28;20046;-73
2021/12/12 05:09:15;;;;;;;3.30;1.55;;;;;;;18.25;51.23;101814.84;4988852;28;20046;-73
2021/12/12 05:12:03;;;;;;;4.78;1.90;;;;;;;18.24;51.43;101807.84;4988298;28;20049;-73
2021/12/12 05:14:39;;;;;;;3.50;1.65;;;;;;;18.22;51.31;101815.06;4989321;28;20439;-73
2021/12/12 05:17:10;;;;;;;4.70;1.88;;;;;;;18.20;51.07;101810.81;4989097;28;20093;-73
2021/12/12 05:19:36;;;;;;;4.60;1.70;;;;;;;18.20;51.24;101810.81;4972784;28;20133;-73
2021/12/12 05:22:09;;;;;;;4.45;1.70;;;;;;;18.19;51.23;101811.78;4987947;28;20114;-72
2021/12/12 05:24:34;;;;;;;4.95;1.70;;;;;;;18.22;51.05;101820.38;4972380;28;20666;-73
2021/12/12 05:27:11;;;;;;;4.65;1.60;;;;;;;18.22;51.28;101806.25;4987837;28;20046;-72
2021/12/12 05:29:39;;;;;;;3.60;1.70;;;;;;;18.19;51.33;101807.31;4972008;28;20048;-73
2021/12/12 05:32:06;;;;;;;4.35;1.63;;;;;;;18.18;51.03;101802.97;4988872;28;20193;-72
2021/12/12 05:34:33;;;;;;;4.70;1.67;;;;;;;18.21;51.18;101802.75;4972399;28;20038;-72
2021/12/12 05:37:01;;;;;;;4.05;1.65;;;;;;;18.19;51.54;101798.50;4987762;28;20039;-72
2021/12/12 05:39:26;;;;;;;5.35;1.95;;;;;;;18.18;51.25;101804.78;4987613;28;20042;-72
2021/12/12 05:41:53;;;;;;;4.38;1.75;;;;;;;18.15;51.53;101808.53;4972032;28;20042;-73
2021/12/12 05:44:18;;;;;;;4.22;2.03;;;;;;;18.16;51.71;101823.47;4987971;28;20042;-73
2021/12/12 05:46:44;;;;;;;4.00;1.88;;;;;;;18.16;51.33;101810.19;4971607;28;20104;-72
2021/12/12 05:49:10;;;;;;;4.70;1.80;;;;;;;18.15;51.36;101813.00;4970982;28;20042;-72
2021/12/12 05:51:36;;;;;;;3.15;1.48;;;;;;;18.17;51.39;101821.66;4990014;28;20066;-73
2021/12/12 05:54:01;;;;;;;5.35;2.00;;;;;;;18.16;51.52;101830.59;5003402;28;20047;-72
2021/12/12 05:56:28;;;;;;;4.05;1.85;;;;;;;18.11;51.58;101822.97;4987420;28;20457;-72
2021/12/12 05:58:54;;;;;;;6.13;1.70;;;;;;;18.11;51.84;101830.94;4990873;28;20065;-71
2021/12/12 06:01:19;;;;;;;6.07;1.70;;;;;;;18.14;51.53;101836.00;4982222;28;20038;-72
2021/12/12 06:03:45;;;;;;;5.10;1.95;;;;;;;18.14;51.75;101833.34;4984897;28;20054;-73
2021/12/12 06:06:17;;;;;;;5.05;1.85;;;;;;;18.16;52.69;101839.41;4986829;28;20541;-73
2021/12/12 06:08:43;;;;;;;6.30;2.20;;;;;;;18.14;53.11;101830.69;4987834;28;20054;-74
2021/12/12 06:11:08;;;;;;;4.68;1.90;;;;;;;18.16;52.76;101841.22;4985972;28;20472;-75
2021/12/12 06:13:36;;;;;;;8.25;1.95;;;;;;;18.20;53.04;101838.22;5002436;28;20065;-74
2021/12/12 06:16:01;;;;;;;4.82;1.83;;;;;;;18.21;52.47;101839.09;4987772;28;20132;-72
2021/12/12 06:18:28;;;;;;;6.72;1.92;;;;;;;18.25;52.26;101852.03;4955542;28;20121;-75
2021/12/12 06:20:54;;;;;;;6.78;1.92;;;;;;;18.24;52.55;101850.34;4988526;28;20034;-73
2021/12/12 06:23:19;;;;;;;7.22;2.30;;;;;;;18.27;52.83;101854.59;4991030;28;20394;-73
2021/12/12 06:25:46;;;;;;;5.22;1.98;;;;;;;18.31;52.55;101850.75;4985783;28;20039;-73
2021/12/12 06:28:32;;;;;;;11.65;2.03;;;;;;;18.35;52.88;101851.34;4993582;28;20056;-73
2021/12/12 06:30:57;;;;;;;6.75;1.88;;;;;;;18.43;52.92;101849.84;4995330;28;20038;-73
2021/12/12 06:33:23;;;;;;;6.70;2.20;;;;;;;18.52;52.81;101850.97;4999120;28;20050;-73
2021/12/12 06:35:48;;;;;;;8.27;2.15;;;;;;;18.59;52.70;101857.50;5008129;28;20151;-73
2021/12/12 06:38:14;;;;;;;5.97;2.17;;;;;;;18.62;52.70;101859.94;5005816;28;20050;-73
2021/12/12 06:40:40;;;;;;;7.22;2.00;;;;;;;18.71;52.27;101863.72;5005770;28;20045;-73
2021/12/12 06:43:07;;;;;;;6.93;1.90;;;;;;;18.79;52.33;101860.50;5001889;28;20124;-73
2021/12/12 06:45:33;;;;;;;5.10;1.80;;;;;;;18.89;52.10;101856.19;4996558;28;20049;-74
2021/12/12 06:47:58;;;;;;;5.68;1.83;;;;;;;18.95;51.57;101861.88;4988596;28;20042;-74
2021/12/12 06:50:25;;;;;;;7.75;1.95;;;;;;;19.00;52.16;101863.38;4970385;28;20066;-74
2021/12/12 06:52:50;;;;;;;5.57;1.85;;;;;;;19.04;51.90;101862.16;4998276;28;20046;-74
2021/12/12 06:55:16;;;;;;;7.30;1.63;;;;;;;19.04;51.69;101865.66;4999002;28;20103;-74
2021/12/12 06:57:42;;;;;;;4.70;1.70;;;;;;;19.06;51.76;101862.91;4997942;28;20044;-74
2021/12/12 07:00:12;;;;;;;8.00;2.03;;;;;;;19.06;52.28;101863.75;4995054;28;20418;-73
2021/12/12 07:02:39;;;;;;;4.53;1.70;;;;;;;19.11;51.53;101866.88;4987752;28;20047;-74
2021/12/12 07:05:05;;;;;;;5.20;1.80;;;;;;;19.11;51.82;101861.56;4993730;28;20046;-74
2021/12/12 07:07:31;;;;;;;7.75;1.90;;;;;;;19.12;52.07;101867.75;4997970;28;20046;-74
2021/12/12 07:09:56;;;;;;;6.95;1.90;;;;;;;19.21;51.50;101868.81;5000806;28;20038;-75
2021/12/12 07:12:23;;;;;;;3.65;1.42;;;;;;;19.25;51.63;101873.81;4998196;28;20483;-74
2021/12/12 07:14:50;;;;;;;5.43;1.55;;;;;;;19.31;51.33;101878.66;4990914;28;20045;-73
2021/12/12 07:17:16;;;;;;;4.30;1.50;;;;;;;19.34;51.17;101878.41;4996691;28;20050;-73
2021/12/12 07:19:41;;;;;;;5.28;1.60;;;;;;;19.35;51.61;101881.94;4997496;28;20120;-75
2021/12/12 07:22:07;;;;;;;4.13;1.50;;;;;;;19.38;51.35;101876.38;5002150;28;20070;-72
2021/12/12 07:24:32;;;;;;;5.10;1.55;;;;;;;19.36;51.51;101875.63;4971693;28;20046;-74
2021/12/12 07:27:01;;;;;;;4.63;1.65;;;;;;;19.40;50.58;101877.09;4994425;28;20042;-74
2021/12/12 07:29:27;;;;;;;5.50;1.52;;;;;;;19.42;50.99;101888.47;4995257;28;20057;-74
2021/12/12 07:31:52;;;;;;;5.65;1.83;;;;;;;19.45;50.57;101882.91;4992418;28;20043;-74
2021/12/12 07:34:18;;;;;;;6.30;1.50;;;;;;;19.45;51.31;101895.34;4990495;28;20586;-74
2021/12/12 07:36:50;;;;;;;5.18;1.65;;;;;;;19.43;51.52;101882.19;5000316;28;20073;-73
2021/12/12 07:39:17;;;;;;;7.43;1.90;;;;;;;19.45;52.05;101895.34;4986200;28;20517;-64
2021/12/12 07:41:43;;;;;;;4.35;1.45;;;;;;;19.47;50.84;101886.28;4973680;28;20045;-76
2021/12/12 07:44:11;;;;;;;6.38;1.50;;;;;;;19.51;51.01;101898.38;4988469;28;20038;-81
2021/12/12 07:46:37;;;;;;;6.45;2.05;;;;;;;19.44;52.31;101905.16;5001199;28;20078;-68
2021/12/12 07:49:03;;;;;;;6.95;1.60;;;;;;;19.50;51.39;101902.03;4990069;28;20100;-65
2021/12/12 07:51:28;;;;;;;8.45;1.85;;;;;;;19.50;52.44;101912.69;5003096;28;20097;-66
2021/12/12 07:53:57;;;;;;;9.18;1.95;;;;;;;19.40;52.99;101911.69;4992254;28;20066;-66
2021/12/12 07:56:24;;;;;;;7.43;1.90;;;;;;;19.38;53.29;101921.59;4989328;28;20133;-66
2021/12/12 07:58:49;;;;;;;6.80;1.67;;;;;;;19.46;52.13;101919.22;4987287;28;20494;-70
2021/12/12 08:01:15;;;;;;;6.70;1.58;;;;;;;19.45;51.35;101912.16;4991441;28;20049;-71
2021/12/12 08:03:41;;;;;;;7.70;2.05;;;;;;;19.50;51.15;101925.97;5000654;28;20049;-71
2021/12/12 08:06:07;;;;;;;5.93;1.98;;;;;;;19.51;52.50;101926.81;5005280;28;20046;-72
2021/12/12 08:08:32;;;;;;;11.02;1.98;;;;;;;19.51;52.11;101932.16;5004224;28;20052;-70
2021/12/12 08:10:58;;;;;;;12.68;1.80;;;;;;;19.47;52.56;101936.88;4990154;28;20045;-69
2021/12/12 08:13:23;;;;;;;8.73;1.90;;;;;;;19.47;53.26;101934.19;4978197;28;20112;-71
2021/12/12 08:15:49;;;;;;;9.43;2.08;;;;;;;19.42;53.19;101939.03;4995169;28;20422;-72
2021/12/12 08:18:15;;;;;;;7.90;1.45;;;;;;;19.38;52.99;101946.41;5006124;28;20125;-72
2021/12/12 08:20:45;;;;;;;7.93;1.60;;;;;;;19.42;52.52;101949.66;5006645;28;20116;-72
2021/12/12 08:23:10;;;;;;;8.98;1.67;;;;;;;19.48;53.01;101953.69;5005286;28;20057;-71
2021/12/12 08:25:36;;;;;;;13.35;1.73;;;;;;;19.47;53.20;101958.16;4981674;28;20069;-71
2021/12/12 08:28:02;;;;;;;4.43;1.35;;;;;;;19.45;52.26;101957.41;4999383;28;20046;-71
2021/12/12 08:30:28;;;;;;;8.88;1.70;;;;;;;19.45;52.46;101965.41;4991764;28;20089;-71
2021/12/12 08:32:54;;;;;;;7.88;1.83;;;;;;;19.41;52.59;101963.94;4994741;28;20486;-72
2021/12/12 08:35:20;;;;;;;7.25;1.48;;;;;;;19.42;52.83;101965.63;5010099;28;20065;-72
2021/12/12 08:37:46;;;;;;;7.55;1.50;;;;;;;19.37;53.60;101963.34;5000164;28;20065;-72
2021/12/12 08:40:14;;;;;;;7.85;1.83;;;;;;;19.38;52.27;101965.03;4990590;28;20042;-69
2021/12/12 08:42:39;;;;;;;8.15;1.50;;;;;;;19.40;52.83;101973.75;4991290;28;20044;-72
2021/12/12 08:45:07;;;;;;;7.13;1.50;;;;;;;19.37;52.74;101968.66;4990557;28;20399;-71
2021/12/12 08:47:34;;;;;;;7.13;1.88;;;;;;;19.35;52.82;101977.72;4992394;28;20430;-72
2021/12/12 08:49:59;;;;;;;9.88;1.63;;;;;;;19.31;53.67;101979.78;4975425;28;20050;-71
2021/12/12 08:52:31;;;;;;;8.45;1.75;;;;;;;19.30;53.15;101985.19;4979400;28;20128;-71
2021/12/12 08:54:57;;;;;;;9.35;1.70;;;;;;;19.33;53.15;101992.94;5000877;28;20042;-72
2021/12/12 08:57:45;;;;;;;5.15;1.20;;;;;;;19.33;53.38;101976.97;4983623;28;20490;-72
2021/12/12 09:00:14;;;;;;;5.93;1.33;;;;;;;19.32;53.80;101986.78;5009898;28;20041;-72
2021/12/12 09:02:39;;;;;;;6.13;1.52;;;;;;;19.42;52.17;101995.75;4998144;28;20096;-71
2021/12/12 09:05:10;;;;;;;6.63;1.20;;;;;;;19.42;52.38;101992.25;4994454;28;20050;-69
2021/12/12 09:07:38;;;;;;;5.70;1.20;;;;;;;19.40;53.28;101996.84;4992931;28;20038;-69
2021/12/12 09:10:13;;;;;;;4.90;1.20;;;;;;;19.39;53.32;101992.47;5001895;28;20129;-70
2021/12/12 09:12:41;;;;;;;8.63;1.50;;;;;;;19.41;53.57;102002.06;4990215;28;20043;-72
2021/12/12 09:15:29;;;;;;;6.07;1.30;;;;;;;19.38;52.88;102002.28;4987809;28;20126;-72
2021/12/12 09:18:03;;;;;;;7.60;1.30;;;;;;;19.36;53.84;102003.34;4990229;28;20034;-73
2021/12/12 09:20:47;;;;;;;3.15;1.00;;;;;;;19.34;53.18;102013.28;4987827;28;20054;-72
2021/12/12 09:23:19;;;;;;;6.97;1.35;;;;;;;19.33;53.60;102014.22;4987378;28;20060;-72
2021/12/12 09:25:52;;;;;;;3.30;1.02;;;;;;;19.34;53.40;102018.63;4972203;28;20197;-73
2021/12/12 09:28:55;;;;;;;9.30;1.50;;;;;;;19.34;53.75;102022.13;4990157;28;20038;-72
2021/12/12 09:31:40;;;;;;;3.67;1.10;;;;;;;19.31;54.00;102010.84;4999135;28;20145;-72
2021/12/12 09:34:25;;;;;;;5.25;1.05;;;;;;;19.32;53.55;102029.34;5006524;28;20045;-72
2021/12/12 09:36:59;;;;;;;4.05;1.00;;;;;;;19.34;53.08;102027.44;5009707;28;20046;-73
2021/12/12 09:39:27;;;;;;;2.70;0.85;;;;;;;19.33;53.49;102027.53;5008606;28;20128;-72
2021/12/12 09:42:38;;;;;;;6.30;1.10;;;;;;;19.33;53.04;102024.88;5008809;28;20125;-75
2021/12/12 09:45:39;;;;;;;3.20;0.80;;;;;;;19.32;53.25;102028.50;5007904;28;20520;-72
2021/12/12 09:51:32;;;;;;;5.18;1.00;;;;;;;19.29;53.48;102028.75;4988611;28;20049;-73
2021/12/12 09:54:20;;;;;;;6.47;1.10;;;;;;;19.28;53.55;102025.22;4988755;28;20057;-72
2021/12/12 09:57:03;;;;;;;5.07;1.00;;;;;;;19.27;54.05;102022.69;4988491;28;20437;-73
2021/12/12 09:59:39;;;;;;;5.47;1.02;;;;;;;19.24;53.40;102028.22;4997800;28;20053;-73
2021/12/12 10:02:11;;;;;;;5.28;0.90;;;;;;;19.11;55.37;102030.94;5006232;28;20062;-74
2021/12/12 10:05:15;;;;;;;6.47;1.13;;;;;;;19.18;55.61;102027.75;4993537;28;20070;-65
2021/12/12 10:07:41;;;;;;;4.38;0.93;;;;;;;19.32;54.69;102039.16;4975469;28;20054;-66
2021/12/12 10:10:10;;;;;;;5.78;1.38;;;;;;;19.34;54.27;102032.75;5008005;28;20104;-65
2021/12/12 10:12:41;;;;;;;4.22;0.93;;;;;;;19.28;55.04;102037.69;4985658;28;20128;-65
2021/12/12 10:15:21;;;;;;;4.10;0.80;;;;;;;19.31;55.35;102037.47;4979903;28;20054;-65
2021/12/12 10:18:05;;;;;;;3.95;0.85;;;;;;;19.38;54.37;102047.53;4980090;28;20062;-65
2021/12/12 10:20:37;;;;;;;3.85;1.05;;;;;;;19.44;53.92;102037.41;4996438;28;20501;-65
2021/12/12 10:23:14;;;;;;;4.03;0.90;;;;;;;19.39;55.42;102029.75;5008503;28;20045;-66
2021/12/12 10:25:53;;;;;;;3.75;0.93;;;;;;;19.33;55.31;102028.38;5002800;28;20121;-65
2021/12/12 10:28:22;;;;;;;3.00;0.80;;;;;;;19.39;54.75;102035.91;5006812;28;20048;-72
2021/12/12 10:31:03;;;;;;;4.75;1.00;;;;;;;19.45;54.99;102031.94;5006850;28;20560;-73
2021/12/12 10:33:40;;;;;;;7.00;1.20;;;;;;;19.43;56.00;102036.53;4999700;28;20073;-73
2021/12/12 10:36:18;;;;;;;5.00;0.90;;;;;;;19.41;55.67;102035.81;4998457;28;20062;-70
2021/12/12 10:39:02;;;;;;;6.10;1.00;;;;;;;19.42;56.50;102029.50;5005737;28;20038;-73
2021/12/12 10:41:42;;;;;;;3.88;1.10;;;;;;;19.49;55.80;102033.44;4993074;28;20034;-74
2021/12/12 10:44:20;;;;;;;4.32;1.05;;;;;;;19.45;55.01;102023.09;4987284;28;20061;-69
2021/12/12 10:46:58;;;;;;;6.60;1.23;;;;;;;19.46;55.09;102025.66;4986615;28;20046;-74
2021/12/12 10:49:35;;;;;;;5.18;0.90;;;;;;;19.47;55.62;102031.84;4992895;28;20115;-73
2021/12/12 10:52:06;;;;;;;5.13;0.85;;;;;;;19.48;55.01;102045.00;5003443;28;20487;-70
2021/12/12 10:54:42;;;;;;;2.78;0.85;;;;;;;19.49;55.83;102046.72;4995193;28;20061;-73
2021/12/12 10:57:13;;;;;;;3.85;0.90;;;;;;;19.48;55.69;102045.00;4991056;28;20050;-72
2021/12/12 11:00:07;;;;;;;7.43;1.00;;;;;;;19.40;55.36;102047.44;5008466;28;20520;-73
2021/12/12 11:02:36;;;;;;;3.80;0.90;;;;;;;19.44;56.55;102043.56;5008599;28;20498;-72
2021/12/12 11:05:14;;;;;;;4.25;0.95;;;;;;;19.47;56.07;102053.97;4990634;28;20056;-73
2021/12/12 11:07:51;;;;;;;4.53;0.80;;;;;;;19.50;55.53;102052.91;4989441;28;20133;-73
2021/12/12 11:10:18;;;;;;;4.22;0.85;;;;;;;19.49;55.87;102052.06;4992155;28;20106;-72
2021/12/12 11:12:45;;;;;;;2.05;0.73;;;;;;;19.49;55.27;102046.72;4993122;28;20046;-73
2021/12/12 11:15:14;;;;;;;4.18;0.90;;;;;;;19.49;55.67;102052.06;5007919;28;20068;-73
2021/12/12 11:17:42;;;;;;;1.80;0.63;;;;;;;19.50;55.50;102056.41;5007305;28;20048;-73
2021/12/12 11:20:16;;;;;;;5.15;0.85;;;;;;;19.49;56.23;102054.72;5002547;28;20052;-72
2021/12/12 11:23:07;;;;;;;5.15;0.95;;;;;;;19.51;55.72;102057.25;5007010;28;20046;-66
2021/12/12 11:25:39;;;;;;;3.33;1.10;;;;;;;19.50;54.52;102063.56;5000940;28;20050;-74
2021/12/12 11:28:36;;;;;;;4.70;1.20;;;;;;;19.45;55.37;102058.56;4991438;28;20046;-74
2021/12/12 11:31:12;;;;;;;4.50;1.23;;;;;;;19.34;56.21;102051.38;4978443;28;20049;-72
2021/12/12 11:33:38;;;;;;;3.15;0.80;;;;;;;19.50;55.94;102059.06;5002908;28;20529;-70
2021/12/12 11:36:04;;;;;;;5.22;1.10;;;;;;;19.60;55.59;102067.22;5004892;28;20042;-70
2021/12/12 11:38:40;;;;;;;4.30;1.00;;;;;;;19.68;56.27;102058.66;4988593;28;20042;-73
2021/12/12 11:41:15;;;;;;;4.00;1.17;;;;;;;19.71;56.48;102063.75;4976214;28;20070;-71
2021/12/12 11:43:49;;;;;;;5.20;1.17;;;;;;;19.69;56.22;102071.03;4986971;28;20430;-71
2021/12/12 11:46:17;;;;;;;3.88;0.95;;;;;;;19.68;57.39;102063.97;4986624;28;20538;-71
2021/12/12 11:48:56;;;;;;;2.97;0.80;;;;;;;19.68;56.82;102072.84;4988574;28;20081;-71
2021/12/12 11:51:28;;;;;;;3.55;0.90;;;;;;;19.71;56.59;102080.59;4994754;28;20038;-71
2021/12/12 11:54:07;;;;;;;3.05;0.73;;;;;;;19.76;54.45;102078.41;4986584;28;20042;-76
2021/12/12 11:56:45;;;;;;;4.07;0.80;;;;;;;19.80;56.38;102071.03;5015020;28;20073;-76
2021/12/12 11:59:22;;;;;;;5.60;1.10;;;;;;;19.74;56.41;102079.50;5006734;28;20041;-74
2021/12/12 12:01:48;;;;;;;4.25;1.25;;;;;;;19.69;57.27;102079.00;5010473;28;20095;-77